San Juan Enterprise — WDD9563 — position and weather

sailwx.info

Track history (hours):
 
Tides and Currents Weather Stations Pressure Air Temp Water Temp Dewpoint Dewpoint Depression Visibility Wind Speed Wind Dir Waves Ship Positions

San Juan Enterprise

Owner: SAN JUAN MARINE FREIGHT CO LLC, ANACORTES, WA. More information available from US FCC via Universal Licensing System and Coast Guard Vessel Documentation Center.

Last reported at 2016-Sep-30 17:33 UTC. Time now 2016-Sep-30 18:43 UTC.
Position N 48°31' W 122°36'.

Length 30 m.

MMSI: 367313160.

Date/timePositionNaut miles runAvg speedWind from/ knotsBaromVisibWave heightAir tempDewpointWater temp
2016-Sep-30 17:33N 48°31' W 122°36'6 6.1
2016-Sep-30 16:33N 48°33' W 122°45'6 3.1
2016-Sep-30 14:33N 48°31' W 122°36'0 0.0
2016-Sep-30 13:32N 48°31' W 122°36'0 0.0
2016-Sep-30 10:32N 48°31' W 122°36'0 0.0
2016-Sep-30 08:32N 48°31' W 122°36'0 0.0
2016-Sep-30 06:32N 48°31' W 122°36'0 0.0
2016-Sep-30 03:26N 48°31' W 122°36'0 0.0
2016-Sep-30 02:33N 48°31' W 122°36'9 3.2
2016-Sep-29 23:33N 48°36' W 122°49'9 4.7
2016-Sep-29 21:33N 48°31' W 122°36'3 3.3
2016-Sep-29 20:33N 48°31' W 122°41'8 8.3
2016-Sep-29 19:33N 48°34' W 122°53'1 0.5
2016-Sep-29 16:33N 48°33' W 122°51'9 8.5
2016-Sep-29 15:33N 48°31' W 122°39'1 1.4
2016-Sep-29 14:30N 48°31' W 122°36'0 0.0
2016-Sep-29 13:30N 48°31' W 122°36'0 0.0
2016-Sep-29 08:30N 48°31' W 122°36'0 0.0
2016-Sep-29 07:30N 48°31' W 122°36'0 0.0
2016-Sep-29 00:30N 48°31' W 122°36'0 0.0
2016-Sep-28 21:30N 48°31' W 122°36'0 0.0
2016-Sep-28 19:30N 48°31' W 122°36'0 0.0
2016-Sep-28 16:30N 48°31' W 122°36'0 0.0
2016-Sep-28 15:30N 48°31' W 122°36'0 0.0
2016-Sep-28 12:30N 48°31' W 122°36'0 0.0
2016-Sep-28 08:24N 48°31' W 122°36'0 0.0
2016-Sep-28 03:30N 48°31' W 122°36'0 0.0
2016-Sep-28 02:30N 48°31' W 122°36'0 0.0
2016-Sep-28 01:24N 48°31' W 122°36'0 0.0
2016-Sep-27 23:30N 48°31' W 122°36'0 0.0
2016-Sep-27 19:34N 48°31' W 122°36'0 0.0
2016-Sep-27 14:31N 48°31' W 122°36'0 0.0
2016-Sep-27 13:31N 48°31' W 122°36'0 0.0
2016-Sep-27 10:31N 48°31' W 122°36'0 0.0
2016-Sep-27 00:25N 48°31' W 122°36'7 1.8
2016-Sep-26 20:33N 48°31' W 122°47'5 5.0
2016-Sep-26 19:33N 48°33' W 122°53'12 2.8
2016-Sep-26 15:28N 48°31' W 122°36'0 0.0
2016-Sep-26 13:28N 48°31' W 122°36'0 0.0
2016-Sep-26 11:28N 48°31' W 122°36'0 0.0
2016-Sep-26 08:28N 48°31' W 122°36'0 0.0
2016-Sep-26 02:28N 48°31' W 122°36'0 0.0
2016-Sep-26 01:28N 48°31' W 122°36'0 0.0
2016-Sep-26 00:28N 48°31' W 122°36'0 0.0
2016-Sep-25 21:28N 48°31' W 122°36'0 0.0
2016-Sep-25 17:28N 48°31' W 122°36'0 0.0
2016-Sep-25 16:28N 48°31' W 122°36'0 0.0
2016-Sep-25 15:28N 48°31' W 122°36'0 0.0
2016-Sep-25 14:28N 48°31' W 122°36'0 0.0
2016-Sep-25 12:22N 48°31' W 122°36'0 0.0
2016-Sep-25 11:28N 48°31' W 122°36'0 0.0
2016-Sep-25 10:22N 48°31' W 122°36'0 0.0
2016-Sep-25 09:28N 48°31' W 122°36'0 0.0
2016-Sep-25 07:16N 48°31' W 122°36'0 0.0
2016-Sep-25 04:28N 48°31' W 122°36'0 0.0
2016-Sep-25 00:28N 48°31' W 122°36'0 0.0
2016-Sep-24 22:28N 48°31' W 122°36'0 0.0
2016-Sep-24 21:22N 48°31' W 122°36'0 0.0
2016-Sep-24 19:32N 48°31' W 122°36'0 0.0
2016-Sep-24 18:28N 48°31' W 122°36'0 0.0
2016-Sep-24 17:16N 48°31' W 122°36'0 0.0
2016-Sep-24 16:28N 48°31' W 122°36'0 0.0
2016-Sep-24 14:32N 48°31' W 122°36'0 0.0
2016-Sep-24 12:28N 48°31' W 122°36'0 0.0
2016-Sep-24 10:32N 48°31' W 122°36'0 0.0
2016-Sep-24 09:28N 48°31' W 122°36'0 0.0
2016-Sep-24 03:28N 48°31' W 122°36'0 0.0
2016-Sep-24 02:28N 48°31' W 122°36'0 0.0
2016-Sep-24 01:28N 48°31' W 122°36'0 0.0
2016-Sep-24 00:28N 48°31' W 122°36'0 0.0
2016-Sep-23 19:28N 48°31' W 122°36'0 0.0
2016-Sep-23 17:31N 48°31' W 122°36'0 0.0
2016-Sep-23 16:28N 48°31' W 122°36'0 0.0
2016-Sep-23 15:28N 48°31' W 122°36'0 0.0
2016-Sep-23 13:28N 48°31' W 122°36'0 0.0
2016-Sep-23 09:22N 48°31' W 122°36'0 0.0
2016-Sep-23 06:28N 48°31' W 122°36'0 0.0
2016-Sep-23 04:22N 48°31' W 122°36'0 0.0
2016-Sep-23 03:28N 48°31' W 122°36'0 0.0
2016-Sep-23 02:28N 48°31' W 122°36'0 0.0
2016-Sep-23 01:28N 48°31' W 122°36'0 0.0
2016-Sep-23 00:28N 48°31' W 122°36'0 0.1
2016-Sep-22 23:33N 48°31' W 122°37'0 0.0
2016-Sep-22 20:29N 48°31' W 122°36'0 0.0
2016-Sep-22 12:31N 48°31' W 122°36'0 0.0
2016-Sep-22 04:31N 48°31' W 122°36'0 0.0
2016-Sep-22 03:25N 48°31' W 122°36'0 0.0
2016-Sep-22 00:31N 48°31' W 122°36'0 0.0
2016-Sep-21 23:31N 48°31' W 122°36'3 3.2
2016-Sep-21 22:33N 48°32' W 122°41'6 2.2
2016-Sep-21 19:33N 48°34' W 122°50'2 0.7
2016-Sep-21 16:33N 48°36' W 122°49'10 1.4
2016-Sep-21 09:33N 48°31' W 122°36'0 0.0
2016-Sep-21 08:33N 48°31' W 122°36'0 0.0
2016-Sep-21 05:33N 48°31' W 122°36'0 0.0
2016-Sep-21 03:33N 48°31' W 122°36'0 0.0
2016-Sep-21 02:33N 48°31' W 122°36'  
Track history (hours):
 
Tides and Currents Weather Stations Pressure Air Temp Water Temp Dewpoint Dewpoint Depression Visibility Wind Speed Wind Dir Waves Ship Positions

San Juan Enterprise

Owner: SAN JUAN MARINE FREIGHT CO LLC, ANACORTES, WA. More information available from US FCC via Universal Licensing System and Coast Guard Vessel Documentation Center.

Last reported at 2016-Sep-30 17:33 UTC. Time now 2016-Sep-30 18:43 UTC.
Position N 48°31' W 122°36'.

Length 30 m.

MMSI: 367313160.

Date/timePositionNaut miles runAvg speedWind from/ knotsBaromVisibWave heightAir tempDewpointWater temp
2016-Sep-30 17:33N 48°31' W 122°36'6 6.1
2016-Sep-30 16:33N 48°33' W 122°45'6 3.1
2016-Sep-30 14:33N 48°31' W 122°36'0 0.0
2016-Sep-30 13:32N 48°31' W 122°36'0 0.0
2016-Sep-30 10:32N 48°31' W 122°36'0 0.0
2016-Sep-30 08:32N 48°31' W 122°36'0 0.0
2016-Sep-30 06:32N 48°31' W 122°36'0 0.0
2016-Sep-30 03:26N 48°31' W 122°36'0 0.0
2016-Sep-30 02:33N 48°31' W 122°36'9 3.2
2016-Sep-29 23:33N 48°36' W 122°49'9 4.7
2016-Sep-29 21:33N 48°31' W 122°36'3 3.3
2016-Sep-29 20:33N 48°31' W 122°41'8 8.3
2016-Sep-29 19:33N 48°34' W 122°53'1 0.5
2016-Sep-29 16:33N 48°33' W 122°51'9 8.5
2016-Sep-29 15:33N 48°31' W 122°39'1 1.4
2016-Sep-29 14:30N 48°31' W 122°36'0 0.0
2016-Sep-29 13:30N 48°31' W 122°36'0 0.0
2016-Sep-29 08:30N 48°31' W 122°36'0 0.0
2016-Sep-29 07:30N 48°31' W 122°36'0 0.0
2016-Sep-29 00:30N 48°31' W 122°36'0 0.0
2016-Sep-28 21:30N 48°31' W 122°36'0 0.0
2016-Sep-28 19:30N 48°31' W 122°36'0 0.0
2016-Sep-28 16:30N 48°31' W 122°36'0 0.0
2016-Sep-28 15:30N 48°31' W 122°36'0 0.0
2016-Sep-28 12:30N 48°31' W 122°36'0 0.0
2016-Sep-28 08:24N 48°31' W 122°36'0 0.0
2016-Sep-28 03:30N 48°31' W 122°36'0 0.0
2016-Sep-28 02:30N 48°31' W 122°36'0 0.0
2016-Sep-28 01:24N 48°31' W 122°36'0 0.0
2016-Sep-27 23:30N 48°31' W 122°36'0 0.0
2016-Sep-27 19:34N 48°31' W 122°36'0 0.0
2016-Sep-27 14:31N 48°31' W 122°36'0 0.0
2016-Sep-27 13:31N 48°31' W 122°36'0 0.0
2016-Sep-27 10:31N 48°31' W 122°36'0 0.0
2016-Sep-27 00:25N 48°31' W 122°36'7 1.8
2016-Sep-26 20:33N 48°31' W 122°47'5 5.0
2016-Sep-26 19:33N 48°33' W 122°53'12 2.8
2016-Sep-26 15:28N 48°31' W 122°36'0 0.0
2016-Sep-26 13:28N 48°31' W 122°36'0 0.0
2016-Sep-26 11:28N 48°31' W 122°36'0 0.0
2016-Sep-26 08:28N 48°31' W 122°36'0 0.0
2016-Sep-26 02:28N 48°31' W 122°36'0 0.0
2016-Sep-26 01:28N 48°31' W 122°36'0 0.0
2016-Sep-26 00:28N 48°31' W 122°36'0 0.0
2016-Sep-25 21:28N 48°31' W 122°36'0 0.0
2016-Sep-25 17:28N 48°31' W 122°36'0 0.0
2016-Sep-25 16:28N 48°31' W 122°36'0 0.0
2016-Sep-25 15:28N 48°31' W 122°36'0 0.0
2016-Sep-25 14:28N 48°31' W 122°36'0 0.0
2016-Sep-25 12:22N 48°31' W 122°36'0 0.0
2016-Sep-25 11:28N 48°31' W 122°36'0 0.0
2016-Sep-25 10:22N 48°31' W 122°36'0 0.0
2016-Sep-25 09:28N 48°31' W 122°36'0 0.0
2016-Sep-25 07:16N 48°31' W 122°36'0 0.0
2016-Sep-25 04:28N 48°31' W 122°36'0 0.0
2016-Sep-25 00:28N 48°31' W 122°36'0 0.0
2016-Sep-24 22:28N 48°31' W 122°36'0 0.0
2016-Sep-24 21:22N 48°31' W 122°36'0 0.0
2016-Sep-24 19:32N 48°31' W 122°36'0 0.0
2016-Sep-24 18:28N 48°31' W 122°36'0 0.0
2016-Sep-24 17:16N 48°31' W 122°36'0 0.0
2016-Sep-24 16:28N 48°31' W 122°36'0 0.0
2016-Sep-24 14:32N 48°31' W 122°36'0 0.0
2016-Sep-24 12:28N 48°31' W 122°36'0 0.0
2016-Sep-24 10:32N 48°31' W 122°36'0 0.0
2016-Sep-24 09:28N 48°31' W 122°36'0 0.0
2016-Sep-24 03:28N 48°31' W 122°36'0 0.0
2016-Sep-24 02:28N 48°31' W 122°36'0 0.0
2016-Sep-24 01:28N 48°31' W 122°36'0 0.0
2016-Sep-24 00:28N 48°31' W 122°36'0 0.0
2016-Sep-23 19:28N 48°31' W 122°36'0 0.0
2016-Sep-23 17:31N 48°31' W 122°36'0 0.0
2016-Sep-23 16:28N 48°31' W 122°36'0 0.0
2016-Sep-23 15:28N 48°31' W 122°36'0 0.0
2016-Sep-23 13:28N 48°31' W 122°36'0 0.0
2016-Sep-23 09:22N 48°31' W 122°36'0 0.0
2016-Sep-23 06:28N 48°31' W 122°36'0 0.0
2016-Sep-23 04:22N 48°31' W 122°36'0 0.0
2016-Sep-23 03:28N 48°31' W 122°36'0 0.0
2016-Sep-23 02:28N 48°31' W 122°36'0 0.0
2016-Sep-23 01:28N 48°31' W 122°36'0 0.0
2016-Sep-23 00:28N 48°31' W 122°36'0 0.1
2016-Sep-22 23:33N 48°31' W 122°37'0 0.0
2016-Sep-22 20:29N 48°31' W 122°36'0 0.0
2016-Sep-22 12:31N 48°31' W 122°36'0 0.0
2016-Sep-22 04:31N 48°31' W 122°36'0 0.0
2016-Sep-22 03:25N 48°31' W 122°36'0 0.0
2016-Sep-22 00:31N 48°31' W 122°36'0 0.0
2016-Sep-21 23:31N 48°31' W 122°36'3 3.2
2016-Sep-21 22:33N 48°32' W 122°41'6 2.2
2016-Sep-21 19:33N 48°34' W 122°50'2 0.7
2016-Sep-21 16:33N 48°36' W 122°49'10 1.4
2016-Sep-21 09:33N 48°31' W 122°36'0 0.0
2016-Sep-21 08:33N 48°31' W 122°36'0 0.0
2016-Sep-21 05:33N 48°31' W 122°36'0 0.0
2016-Sep-21 03:33N 48°31' W 122°36'0 0.0
2016-Sep-21 02:33N 48°31' W 122°36'  

Dump ship's entire track history